Time;durP1;ratioP1;P1;durP2;ratioP2;P2;SDS_P1;SDS_P2;PMS_P1;PMS_P2;Temp;Humidity;BMP_temperature;BMP_pressure;BME280_temperature;BME280_humidity;BME280_pressure;Samples;Min_cycle;Max_cycle;Signal;HPM_P1;HPM_P2
2021/12/07 00:01:49;;;;;;;13.25;9.90;;;21.80;77.40;;;;;;6195105;28;89066;-65
2021/12/07 00:04:51;;;;;;;10.98;9.75;;;21.80;77.40;;;;;;6195193;28;88926;-65
2021/12/07 00:07:53;;;;;;;12.77;9.98;;;21.80;77.40;;;;;;6193209;28;88462;-65
2021/12/07 00:10:56;;;;;;;13.40;10.02;;;21.80;77.30;;;;;;6201870;28;89019;-65
2021/12/07 00:14:00;;;;;;;11.05;9.85;;;21.80;77.30;;;;;;6205833;28;89076;-65
2021/12/07 00:17:03;;;;;;;11.90;10.20;;;21.80;77.30;;;;;;6217466;28;90017;-65
2021/12/07 00:20:10;;;;;;;10.85;9.68;;;21.80;77.30;;;;;;6205933;28;89067;-65
2021/12/07 00:23:12;;;;;;;11.07;9.50;;;21.80;77.30;;;;;;6203404;28;89116;-65
2021/12/07 00:26:16;;;;;;;11.02;9.80;;;21.70;77.20;;;;;;6207165;28;89365;-65
2021/12/07 00:29:18;;;;;;;11.77;9.82;;;21.70;79.10;;;;;;6201334;28;89278;-65
2021/12/07 00:32:26;;;;;;;12.20;9.63;;;21.80;78.80;;;;;;6190587;28;90799;-65
2021/12/07 00:35:34;;;;;;;11.52;9.55;;;21.80;78.40;;;;;;6193910;28;89288;-65
2021/12/07 00:38:36;;;;;;;10.10;8.60;;;21.80;78.10;;;;;;6198354;28;88684;-65
2021/12/07 00:41:40;;;;;;;11.05;9.05;;;21.80;78.00;;;;;;6221368;28;89050;-65
2021/12/07 00:44:42;;;;;;;11.32;8.93;;;21.80;77.90;;;;;;6205476;28;88221;-64
2021/12/07 00:47:44;;;;;;;10.63;9.10;;;21.80;77.70;;;;;;6209289;28;90041;-65
2021/12/07 00:50:48;;;;;;;10.65;9.30;;;21.70;77.70;;;;;;6208478;28;87786;-65
2021/12/07 00:53:50;;;;;;;9.60;8.60;;;21.80;77.70;;;;;;6206539;28;89103;-64
2021/12/07 00:56:54;;;;;;;10.38;9.07;;;21.70;77.60;;;;;;6200383;28;89126;-65
2021/12/07 00:59:56;;;;;;;10.40;8.90;;;21.70;77.60;;;;;;6206701;28;91376;-65
2021/12/07 01:02:58;;;;;;;9.32;8.32;;;21.70;77.60;;;;;;6208772;28;89237;-65
2021/12/07 01:06:16;;;;;;;9.13;8.18;;;21.70;77.60;;;;;;6211296;28;89057;-65
2021/12/07 01:09:26;;;;;;;9.85;8.43;;;21.60;77.60;;;;;;6215988;28;88710;-64
2021/12/07 01:25:44;;;;;;;9.52;8.15;;;21.60;77.50;;;;;;6198549;28;87357;-65
2021/12/07 01:28:47;;;;;;;8.70;7.80;;;21.60;77.50;;;;;;6204163;28;89430;-65
2021/12/07 01:31:55;;;;;;;9.63;8.25;;;21.60;77.60;;;;;;6201818;28;89015;-65
2021/12/07 01:42:48;;;;;;;9.70;8.25;;;21.60;77.50;;;;;;6196945;28;86892;-65
2021/12/07 01:45:36;;;;;;;9.15;8.25;;;21.60;77.50;;;;;;6205498;28;88931;-64
2021/12/07 02:02:03;;;;;;;9.63;7.90;;;21.50;77.40;;;;;;6206028;28;87826;-65
2021/12/07 02:05:07;;;;;;;9.27;8.27;;;21.40;77.40;;;;;;6210617;28;89450;-65
2021/12/07 02:08:09;;;;;;;10.05;8.18;;;21.50;77.50;;;;;;6203938;28;89038;-65
2021/12/07 02:11:11;;;;;;;8.88;7.97;;;21.40;77.40;;;;;;6204173;28;88991;-64
2021/12/07 02:14:17;;;;;;;9.27;8.38;;;21.40;77.40;;;;;;6201148;28;87228;-64
2021/12/07 02:17:24;;;;;;;8.63;7.82;;;21.40;77.40;;;;;;6209528;28;89082;-64
2021/12/07 02:20:30;;;;;;;9.90;8.90;;;21.40;77.40;;;;;;6201930;28;88207;-64
2021/12/07 02:23:33;;;;;;;9.23;8.27;;;21.40;77.40;;;;;;6199751;28;88852;-63
2021/12/07 02:26:36;;;;;;;9.32;8.43;;;21.40;77.40;;;;;;6200193;28;89112;-64
2021/12/07 02:29:38;;;;;;;9.65;8.65;;;21.30;77.30;;;;;;6206954;28;89165;-63
2021/12/07 02:32:40;;;;;;;9.25;8.35;;;21.30;77.30;;;;;;6206231;28;89215;-64
2021/12/07 02:35:42;;;;;;;10.43;9.05;;;21.30;77.20;;;;;;6211293;28;89045;-64
2021/12/07 02:38:46;;;;;;;9.82;8.63;;;21.30;77.30;;;;;;6191364;28;87948;-63
2021/12/07 02:41:48;;;;;;;9.10;8.20;;;21.30;77.30;;;;;;6208162;28;89177;-64
2021/12/07 02:44:50;;;;;;;9.55;8.55;;;21.30;77.30;;;;;;6203643;28;87264;-64
2021/12/07 02:47:52;;;;;;;10.80;9.70;;;21.30;77.30;;;;;;6206912;28;89071;-64
2021/12/07 02:50:54;;;;;;;10.52;9.48;;;21.30;77.30;;;;;;6214933;28;88388;-64
2021/12/07 02:53:58;;;;;;;10.23;9.23;;;21.30;77.30;;;;;;6198668;28;90034;-64
2021/12/07 02:57:00;;;;;;;10.57;9.48;;;21.30;77.20;;;;;;6214171;28;89303;-64
2021/12/07 03:00:10;;;;;;;9.85;8.85;;;21.30;77.20;;;;;;6211903;28;89071;-64
2021/12/07 03:03:13;;;;;;;9.95;8.95;;;21.30;77.20;;;;;;6209376;28;89119;-63
2021/12/07 03:06:21;;;;;;;11.32;9.77;;;21.30;77.10;;;;;;6215533;28;89573;-64
2021/12/07 03:10:11;;;;;;;10.10;9.15;;;21.30;77.10;;;;;;6214337;28;89033;-65
2021/12/07 03:26:35;;;;;;;10.43;9.43;;;21.20;77.20;;;;;;6212483;28;88271;-64
2021/12/07 03:29:37;;;;;;;10.40;9.40;;;21.20;77.20;;;;;;6202825;28;89150;-64
2021/12/07 03:32:39;;;;;;;10.80;9.70;;;21.20;77.20;;;;;;6196896;28;89119;-64
2021/12/07 03:35:41;;;;;;;10.52;9.43;;;21.10;77.20;;;;;;6201309;28;89505;-64
2021/12/07 03:38:43;;;;;;;10.60;9.50;;;21.20;77.60;;;;;;6205470;28;89040;-64
2021/12/07 03:41:46;;;;;;;10.10;9.10;;;21.20;77.20;;;;;;6203866;28;89408;-64
2021/12/07 03:44:48;;;;;;;10.55;9.50;;;21.10;77.20;;;;;;6225312;28;89493;-64
2021/12/07 03:47:50;;;;;;;10.43;9.27;;;21.10;77.20;;;;;;6197472;28;87324;-64
2021/12/07 03:50:52;;;;;;;10.77;9.68;;;21.10;77.20;;;;;;6205166;28;89403;-64
2021/12/07 03:53:54;;;;;;;10.45;9.45;;;21.10;77.20;;;;;;6208494;28;89056;-64
2021/12/07 03:56:58;;;;;;;10.27;9.27;;;21.10;77.20;;;;;;6194367;28;90312;-64
2021/12/07 04:00:00;;;;;;;10.50;9.35;;;21.10;77.20;;;;;;6203318;28;89369;-64
2021/12/07 04:03:07;;;;;;;10.57;9.48;;;21.10;77.20;;;;;;6195553;28;89011;-64
2021/12/07 04:06:10;;;;;;;10.68;9.65;;;21.10;77.20;;;;;;6195840;28;89087;-64
2021/12/07 04:09:12;;;;;;;10.68;9.57;;;21.10;77.20;;;;;;6195474;28;89054;-64
2021/12/07 04:12:15;;;;;;;9.85;8.88;;;21.10;77.10;;;;;;6194763;28;89123;-64
2021/12/07 04:15:19;;;;;;;9.73;8.82;;;21.10;77.00;;;;;;6212747;28;90449;-64
2021/12/07 04:18:21;;;;;;;9.77;8.77;;;21.20;77.00;;;;;;6218063;28;86252;-64
2021/12/07 04:21:23;;;;;;;9.82;8.82;;;21.20;76.80;;;;;;6196922;28;89271;-64
2021/12/07 04:24:27;;;;;;;10.07;9.07;;;21.20;76.70;;;;;;6207106;28;88421;-64
2021/12/07 04:27:34;;;;;;;10.32;9.20;;;21.20;76.60;;;;;;6201514;28;89977;-64
2021/12/07 04:30:40;;;;;;;9.68;8.68;;;21.20;76.50;;;;;;6191976;28;89269;-63
2021/12/07 04:33:43;;;;;;;10.05;9.05;;;21.20;76.50;;;;;;6208662;28;89056;-64
2021/12/07 04:36:45;;;;;;;9.43;8.52;;;21.30;76.50;;;;;;6200248;28;89150;-63
2021/12/07 04:39:47;;;;;;;9.40;8.50;;;21.30;76.40;;;;;;6199037;28;89134;-63
2021/12/07 04:42:51;;;;;;;9.45;8.52;;;21.30;76.30;;;;;;6201691;28;88063;-64
2021/12/07 04:46:03;;;;;;;9.18;8.27;;;21.30;76.30;;;;;;6207724;28;89227;-63
2021/12/07 04:49:41;;;;;;;9.57;8.57;;;21.30;76.10;;;;;;6203258;28;88423;-64
2021/12/07 04:59:22;;;;;;;8.65;7.75;;;21.40;76.00;;;;;;6210169;28;87908;-64
2021/12/07 05:02:24;;;;;;;9.18;8.27;;;21.40;75.90;;;;;;6220431;28;88857;-64
2021/12/07 05:05:31;;;;;;;8.77;7.88;;;21.40;75.80;;;;;;6197132;28;89031;-64
2021/12/07 05:08:39;;;;;;;8.75;7.95;;;21.50;75.80;;;;;;6188267;28;89978;-64
2021/12/07 05:11:51;;;;;;;8.98;8.07;;;21.50;75.70;;;;;;6216446;28;88905;-64
2021/12/07 05:15:01;;;;;;;8.50;7.60;;;21.50;75.70;;;;;;6214922;28;88168;-64
2021/12/07 05:18:21;;;;;;;8.05;7.25;;;21.50;75.50;;;;;;6218506;28;88777;-64
2021/12/07 05:24:55;;;;;;;7.70;7.00;;;21.60;75.50;;;;;;6198566;28;86935;-64
2021/12/07 05:37:55;;;;;;;8.43;7.63;;;21.60;75.40;;;;;;6206197;28;88453;-64
2021/12/07 05:40:59;;;;;;;8.32;7.53;;;21.60;75.50;;;;;;6207205;28;89021;-64
2021/12/07 05:44:03;;;;;;;8.80;7.90;;;21.50;75.50;;;;;;6200233;28;89096;-63
2021/12/07 05:47:07;;;;;;;7.97;6.80;;;21.60;75.70;;;;;;6207701;28;89002;-64
2021/12/07 05:50:11;;;;;;;7.60;6.90;;;21.50;75.70;;;;;;6184684;28;89016;-64
2021/12/07 05:53:14;;;;;;;7.50;6.80;;;21.50;75.90;;;;;;6194469;28;88346;-64
2021/12/07 05:56:16;;;;;;;7.57;6.88;;;21.50;76.10;;;;;;6196863;28;89343;-65
2021/12/07 05:59:18;;;;;;;7.47;6.78;;;21.50;76.10;;;;;;6193514;28;87925;-65
2021/12/07 06:02:22;;;;;;;7.93;7.07;;;21.60;75.50;;;;;;6200128;28;90064;-65
2021/12/07 06:05:25;;;;;;;7.70;6.90;;;21.60;75.20;;;;;;6203064;28;89100;-65
2021/12/07 06:08:28;;;;;;;7.45;6.68;;;21.60;75.30;;;;;;6204178;28;89023;-65
2021/12/07 06:11:30;;;;;;;7.18;6.50;;;21.60;75.30;;;;;;6204243;28;89095;-64
2021/12/07 06:14:35;;;;;;;7.72;6.82;;;21.60;75.40;;;;;;6208673;28;88264;-64
2021/12/07 06:17:38;;;;;;;7.75;6.63;;;21.60;75.40;;;;;;6208924;28;88966;-64
2021/12/07 06:20:41;;;;;;;7.03;6.28;;;21.60;75.40;;;;;;6215652;28;89047;-64
2021/12/07 06:23:44;;;;;;;7.28;6.55;;;21.60;75.40;;;;;;6224369;28;88307;-64
2021/12/07 06:26:46;;;;;;;7.25;6.55;;;21.60;75.40;;;;;;6219859;28;89009;-64
2021/12/07 06:29:48;;;;;;;7.28;5.72;;;21.60;75.40;;;;;;6226853;28;87992;-64
2021/12/07 06:32:51;;;;;;;6.72;5.88;;;21.60;75.40;;;;;;6229855;28;90610;-65
2021/12/07 06:35:57;;;;;;;7.10;6.40;;;21.60;75.30;;;;;;6205876;28;89051;-64
2021/12/07 06:38:59;;;;;;;6.40;5.80;;;21.70;75.30;;;;;;6218941;28;87994;-64
2021/12/07 06:42:01;;;;;;;6.95;5.97;;;21.70;75.20;;;;;;6222954;28;89353;-64
2021/12/07 06:45:04;;;;;;;6.40;5.80;;;21.70;75.20;;;;;;6215953;28;87959;-64
2021/12/07 06:48:07;;;;;;;6.03;5.13;;;21.70;75.20;;;;;;6200919;28;87944;-65
2021/12/07 06:51:09;;;;;;;6.07;5.45;;;21.70;75.10;;;;;;6223746;28;89057;-65
2021/12/07 06:54:11;;;;;;;8.05;5.97;;;21.70;75.00;;;;;;6219968;28;88502;-64
2021/12/07 06:57:13;;;;;;;7.97;5.80;;;21.80;75.10;;;;;;6204878;28;89546;-65
2021/12/07 07:00:17;;;;;;;6.38;5.57;;;21.80;75.00;;;;;;6216083;28;88819;-64
2021/12/07 07:03:20;;;;;;;6.18;5.63;;;21.80;75.00;;;;;;6205485;28;89974;-63
2021/12/07 07:06:22;;;;;;;5.80;5.28;;;21.90;75.00;;;;;;6204082;28;89130;-65
2021/12/07 07:09:25;;;;;;;5.88;5.38;;;21.80;74.90;;;;;;6207359;28;87983;-63
2021/12/07 07:12:27;;;;;;;5.80;5.10;;;21.90;74.90;;;;;;6223784;28;89006;-64
2021/12/07 07:15:29;;;;;;;5.55;5.05;;;21.90;74.90;;;;;;6206544;28;89382;-64
2021/12/07 07:18:34;;;;;;;5.80;5.20;;;21.90;74.70;;;;;;6203571;28;89249;-64
2021/12/07 07:21:36;;;;;;;6.22;5.50;;;21.90;74.70;;;;;;6197755;28;89100;-64
2021/12/07 07:24:41;;;;;;;5.53;4.85;;;21.90;74.70;;;;;;6205467;28;88250;-64
2021/12/07 07:27:43;;;;;;;5.38;4.88;;;22.00;74.60;;;;;;6203783;28;89049;-64
2021/12/07 07:30:46;;;;;;;5.30;4.80;;;22.00;74.60;;;;;;6208608;28;88051;-64
2021/12/07 07:33:49;;;;;;;5.00;4.60;;;22.00;74.50;;;;;;6202394;28;90399;-64
2021/12/07 07:36:51;;;;;;;5.15;4.65;;;22.00;74.50;;;;;;6216427;28;89365;-64
2021/12/07 07:39:53;;;;;;;5.00;4.50;;;22.00;74.50;;;;;;6206082;28;89006;-64
2021/12/07 07:42:56;;;;;;;5.00;4.50;;;22.00;74.50;;;;;;6207793;28;88997;-64
2021/12/07 07:45:58;;;;;;;5.47;4.97;;;22.00;74.50;;;;;;6208220;28;89132;-64
2021/12/07 07:49:02;;;;;;;4.82;4.40;;;22.00;74.50;;;;;;6210957;28;89056;-64
2021/12/07 07:52:05;;;;;;;4.72;4.22;;;22.00;74.40;;;;;;6209657;28;89547;-64
2021/12/07 07:55:09;;;;;;;4.90;4.40;;;22.00;74.40;;;;;;6199410;28;88390;-64
2021/12/07 07:58:12;;;;;;;4.97;4.47;;;22.00;74.40;;;;;;6215176;28;89136;-64
2021/12/07 08:01:14;;;;;;;4.55;4.15;;;22.10;74.40;;;;;;6204753;28;89136;-63
2021/12/07 08:04:18;;;;;;;5.07;4.57;;;22.00;74.40;;;;;;6208227;28;90120;-64
2021/12/07 08:07:20;;;;;;;4.38;3.97;;;22.00;74.30;;;;;;6210390;28;88029;-64
2021/12/07 08:10:28;;;;;;;4.60;4.20;;;22.10;74.40;;;;;;6206848;28;88992;-64
2021/12/07 08:13:31;;;;;;;5.55;4.50;;;22.10;74.30;;;;;;6197305;28;89125;-64
2021/12/07 08:16:34;;;;;;;4.57;4.10;;;22.10;74.20;;;;;;6210762;28;89589;-63
2021/12/07 08:19:38;;;;;;;4.60;3.97;;;22.10;74.20;;;;;;6208811;28;88907;-64
2021/12/07 08:22:40;;;;;;;4.47;4.07;;;22.10;74.30;;;;;;6212054;28;89234;-64
2021/12/07 08:25:44;;;;;;;4.72;3.70;;;22.10;74.20;;;;;;6226183;28;88331;-64
2021/12/07 08:28:46;;;;;;;4.15;3.75;;;22.10;74.20;;;;;;6198592;28;87969;-64
2021/12/07 08:31:48;;;;;;;3.90;3.60;;;22.10;74.20;;;;;;6211463;28;88561;-64
2021/12/07 08:34:52;;;;;;;4.15;3.75;;;22.10;74.20;;;;;;6201278;28;90019;-64
2021/12/07 08:37:54;;;;;;;4.43;4.03;;;22.10;74.20;;;;;;6208331;28;88304;-64
2021/12/07 08:40:57;;;;;;;3.90;3.60;;;22.10;74.10;;;;;;6210505;28;89019;-64
2021/12/07 08:43:59;;;;;;;3.95;3.55;;;22.10;74.10;;;;;;6204480;28;87964;-63
2021/12/07 08:47:01;;;;;;;3.67;3.30;;;22.10;74.10;;;;;;6206356;28;89063;-64
2021/12/07 08:50:07;;;;;;;4.00;3.60;;;22.20;74.10;;;;;;6201499;28;89209;-64
2021/12/07 08:53:12;;;;;;;3.67;3.38;;;22.20;74.00;;;;;;6202470;28;89042;-63
2021/12/07 08:59:44;;;;;;;3.63;3.33;;;22.20;74.00;;;;;;6205263;28;87601;-63
2021/12/07 09:02:46;;;;;;;3.58;3.28;;;22.20;74.00;;;;;;6212498;28;89135;-63
2021/12/07 09:05:50;;;;;;;3.60;3.30;;;22.20;74.00;;;;;;6205427;28;90436;-64
2021/12/07 09:08:52;;;;;;;3.78;3.22;;;22.30;74.00;;;;;;6211587;28;88263;-64
2021/12/07 09:11:55;;;;;;;3.55;3.25;;;22.30;74.00;;;;;;6200501;28;88984;-64
2021/12/07 09:14:57;;;;;;;3.42;3.13;;;22.20;73.90;;;;;;6193039;28;89185;-63
2021/12/07 09:17:59;;;;;;;3.67;3.38;;;22.20;73.90;;;;;;6219637;28;89056;-64
2021/12/07 09:21:04;;;;;;;2.97;2.78;;;22.20;73.90;;;;;;6220679;28;89091;-64
2021/12/07 09:24:06;;;;;;;3.55;3.25;;;22.20;73.90;;;;;;6208258;28;89158;-64
2021/12/07 09:27:08;;;;;;;3.47;3.17;;;22.20;73.90;;;;;;6200622;28;88335;-64
2021/12/07 09:30:13;;;;;;;3.13;2.85;;;22.20;73.90;;;;;;6215142;28;89027;-63
2021/12/07 09:33:15;;;;;;;3.22;2.92;;;22.20;73.90;;;;;;6227860;28;89375;-63
2021/12/07 09:36:18;;;;;;;3.28;2.97;;;22.20;73.80;;;;;;6225496;28;89942;-64
2021/12/07 09:39:21;;;;;;;3.15;2.90;;;22.30;74.90;;;;;;6214828;28;89567;-63
2021/12/07 09:42:23;;;;;;;3.33;3.03;;;22.20;73.80;;;;;;6224528;28;89323;-63
2021/12/07 09:45:30;;;;;;;2.83;2.60;;;22.20;73.80;;;;;;6225091;28;89066;-63
2021/12/07 09:48:32;;;;;;;3.20;2.90;;;22.20;73.80;;;;;;6190987;28;89074;-63
2021/12/07 09:51:37;;;;;;;3.25;2.95;;;22.30;73.80;;;;;;6199248;28;89264;-63
2021/12/07 09:54:39;;;;;;;2.92;2.72;;;22.20;73.80;;;;;;6210051;28;89303;-63
2021/12/07 09:57:41;;;;;;;3.33;2.60;;;22.30;73.80;;;;;;6213874;28;88677;-64
2021/12/07 10:00:45;;;;;;;2.85;2.65;;;22.30;73.80;;;;;;6208313;28;89267;-63
2021/12/07 10:03:48;;;;;;;2.70;2.50;;;22.30;73.80;;;;;;6208242;28;89108;-64
2021/12/07 10:06:51;;;;;;;3.22;2.90;;;22.30;73.80;;;;;;6207105;28;89987;-64
2021/12/07 10:09:54;;;;;;;2.60;2.40;;;22.30;73.80;;;;;;6202858;28;89147;-64
2021/12/07 10:12:56;;;;;;;2.70;2.50;;;22.30;73.70;;;;;;6223054;28;88966;-63
2021/12/07 10:16:02;;;;;;;2.60;2.40;;;22.30;73.70;;;;;;6207183;28;89069;-63
2021/12/07 10:19:04;;;;;;;2.60;2.40;;;22.30;73.70;;;;;;6217984;28;89178;-64
2021/12/07 10:22:12;;;;;;;3.50;2.72;;;22.30;73.60;;;;;;6195196;28;89079;-64
2021/12/07 10:25:26;;;;;;;2.47;2.28;;;22.30;73.70;;;;;;6195901;28;89154;-64
2021/12/07 10:28:31;;;;;;;2.75;2.55;;;22.40;73.70;;;;;;6213546;28;88140;-63
2021/12/07 10:31:38;;;;;;;2.40;2.20;;;22.40;73.70;;;;;;6211422;28;89091;-64
2021/12/07 10:34:41;;;;;;;2.42;2.22;;;22.40;73.60;;;;;;6201294;28;89003;-63
2021/12/07 10:38:11;;;;;;;2.70;2.50;;;22.30;73.50;;;;;;6198664;28;90037;-64
2021/12/07 10:41:17;;;;;;;2.72;2.53;;;22.40;73.60;;;;;;6207724;28;89099;-64
2021/12/07 10:44:22;;;;;;;2.67;2.30;;;22.40;73.60;;;;;;6207468;28;88853;-63
2021/12/07 10:47:27;;;;;;;2.60;2.40;;;22.40;73.60;;;;;;6197494;28;89080;-64
2021/12/07 10:50:29;;;;;;;2.38;2.17;;;22.40;73.60;;;;;;6205688;28;89153;-64
2021/12/07 10:53:36;;;;;;;2.47;2.28;;;22.40;73.60;;;;;;6205678;28;89081;-64
2021/12/07 10:56:39;;;;;;;2.45;2.08;;;22.40;73.60;;;;;;6199604;28;89365;-64
2021/12/07 10:59:57;;;;;;;3.17;2.33;;;22.40;73.60;;;;;;6207853;28;88054;-64
2021/12/07 11:03:03;;;;;;;2.47;2.28;;;22.30;73.50;;;;;;6215225;28;89124;-63
2021/12/07 11:06:05;;;;;;;2.30;2.10;;;22.40;73.50;;;;;;6210753;28;89429;-64
2021/12/07 11:09:08;;;;;;;2.22;2.03;;;22.40;73.60;;;;;;6216202;28;90031;-64
2021/12/07 11:12:14;;;;;;;2.13;1.92;;;22.40;73.50;;;;;;6201128;28;89357;-64
2021/12/07 11:15:23;;;;;;;2.30;2.10;;;22.40;73.50;;;;;;6223137;28;87955;-64
2021/12/07 11:18:27;;;;;;;2.17;1.98;;;22.40;73.50;;;;;;6203924;28;89245;-64
2021/12/07 11:21:33;;;;;;;2.38;2.08;;;22.40;73.50;;;;;;6208935;28;89522;-64
2021/12/07 11:24:39;;;;;;;2.25;2.05;;;22.40;73.50;;;;;;6194560;28;87660;-64
2021/12/07 11:31:16;;;;;;;2.22;2.03;;;22.40;73.40;;;;;;6208841;28;86607;-64
2021/12/07 11:34:20;;;;;;;2.35;2.13;;;22.40;73.40;;;;;;6195434;28;89027;-64
2021/12/07 11:37:23;;;;;;;2.25;1.92;;;22.40;73.30;;;;;;6202658;28;88009;-63
2021/12/07 11:40:45;;;;;;;2.17;1.98;;;22.40;73.30;;;;;;6199107;28;90019;-64
2021/12/07 11:43:56;;;;;;;2.10;1.90;;;22.50;73.30;;;;;;6204458;28;89267;-64
2021/12/07 11:46:59;;;;;;;1.75;1.65;;;22.50;73.30;;;;;;6197959;28;89055;-64
2021/12/07 11:50:13;;;;;;;1.88;1.77;;;22.50;73.30;;;;;;6210563;28;89584;-64
2021/12/07 11:53:18;;;;;;;1.88;1.73;;;22.50;73.20;;;;;;6199111;28;89069;-64
2021/12/07 11:56:22;;;;;;;1.90;1.70;;;22.50;73.20;;;;;;6205668;28;89250;-64
2021/12/07 12:00:01;;;;;;;2.03;1.83;;;22.50;73.20;;;;;;6199752;28;89417;-64
2021/12/07 12:03:04;;;;;;;1.90;1.80;;;22.50;73.20;;;;;;6211754;28;88381;-64
2021/12/07 12:06:07;;;;;;;1.77;1.67;;;22.50;73.20;;;;;;6202463;28;89598;-64
2021/12/07 12:09:10;;;;;;;1.88;1.70;;;22.50;73.20;;;;;;6204904;28;88992;-64
2021/12/07 12:12:23;;;;;;;1.98;1.80;;;22.50;73.20;;;;;;6202186;28;89714;-64
2021/12/07 12:15:46;;;;;;;1.70;1.60;;;22.50;73.20;;;;;;6208646;28;87974;-64
2021/12/07 12:18:59;;;;;;;1.90;1.70;;;22.50;73.20;;;;;;6198814;28;89819;-64
2021/12/07 12:22:08;;;;;;;1.77;1.67;;;22.50;74.00;;;;;;6213463;28;89383;-64
2021/12/07 12:25:13;;;;;;;1.50;1.40;;;22.50;73.20;;;;;;6198064;28;89118;-64
2021/12/07 12:28:25;;;;;;;1.90;1.70;;;22.50;73.20;;;;;;6205141;28;89467;-64
2021/12/07 12:31:47;;;;;;;1.50;1.40;;;22.50;73.20;;;;;;6193035;28;89148;-64
2021/12/07 12:34:50;;;;;;;1.80;1.60;;;22.50;73.20;;;;;;6209135;28;87556;-64
2021/12/07 12:37:52;;;;;;;1.90;1.60;;;22.50;73.10;;;;;;6216563;28;90041;-64
2021/12/07 12:40:57;;;;;;;2.15;1.60;;;22.50;73.20;;;;;;6211105;28;89041;-64
2021/12/07 12:44:08;;;;;;;2.25;1.38;;;22.50;73.10;;;;;;6209576;28;90296;-64
2021/12/07 12:47:10;;;;;;;1.63;1.52;;;22.50;73.10;;;;;;6216822;28;89501;-64
2021/12/07 12:50:16;;;;;;;1.70;1.60;;;22.50;73.10;;;;;;6205922;28;89047;-64
2021/12/07 12:53:20;;;;;;;1.50;1.40;;;22.50;73.00;;;;;;6200821;28;89390;-64
2021/12/07 12:56:24;;;;;;;1.70;1.60;;;22.50;73.00;;;;;;6204738;28;89080;-64
2021/12/07 12:59:28;;;;;;;1.63;1.52;;;22.50;73.00;;;;;;6198286;28;89138;-64
2021/12/07 13:02:30;;;;;;;1.75;1.50;;;22.50;73.00;;;;;;6199886;28;89165;-64
2021/12/07 13:05:36;;;;;;;1.60;1.50;;;22.50;73.00;;;;;;6200222;28;88648;-63
2021/12/07 13:08:52;;;;;;;2.25;1.83;;;22.50;73.00;;;;;;6200630;28;89035;-64
2021/12/07 13:11:57;;;;;;;2.05;1.85;;;22.50;73.00;;;;;;6205967;28;88931;-64
2021/12/07 13:15:04;;;;;;;2.10;1.90;;;22.50;72.90;;;;;;6211607;28;89955;-64
2021/12/07 13:18:07;;;;;;;2.00;1.80;;;22.50;73.00;;;;;;6208453;28;89136;-64
2021/12/07 13:21:25;;;;;;;2.40;1.98;;;22.50;72.90;;;;;;6199684;28;89143;-64
2021/12/07 13:24:35;;;;;;;2.75;2.20;;;22.50;73.00;;;;;;6211133;28;87962;-64
2021/12/07 13:27:37;;;;;;;2.47;2.28;;;22.60;73.00;;;;;;6207938;28;89071;-64
2021/12/07 13:30:51;;;;;;;2.63;2.30;;;22.50;72.90;;;;;;6207127;28;87973;-64
2021/12/07 13:33:56;;;;;;;2.67;2.40;;;22.50;72.90;;;;;;6222203;28;89056;-63
2021/12/07 13:37:01;;;;;;;2.83;2.53;;;22.50;72.80;;;;;;6221213;28;88368;-64
2021/12/07 13:40:04;;;;;;;2.60;2.40;;;22.50;72.80;;;;;;6189323;28;89219;-64
2021/12/07 13:43:06;;;;;;;2.80;2.60;;;22.50;72.90;;;;;;6191735;28;87996;-63
2021/12/07 13:46:12;;;;;;;3.20;2.90;;;22.50;72.90;;;;;;6205871;28;90111;-63
2021/12/07 13:49:15;;;;;;;3.17;2.88;;;22.60;72.90;;;;;;6215689;28;88867;-64
2021/12/07 13:52:19;;;;;;;3.47;3.05;;;22.60;73.00;;;;;;6216475;28;89142;-64
2021/12/07 13:55:25;;;;;;;3.30;3.00;;;22.50;72.90;;;;;;6209744;28;88274;-64
2021/12/07 13:58:31;;;;;;;3.53;3.22;;;22.50;72.90;;;;;;6205945;28;89170;-64
2021/12/07 14:01:38;;;;;;;3.80;3.40;;;22.60;73.00;;;;;;6219129;28;89098;-63
2021/12/07 14:04:40;;;;;;;3.80;3.35;;;22.60;73.00;;;;;;6208360;28;89501;-64
2021/12/07 14:07:44;;;;;;;4.00;3.60;;;22.50;73.00;;;;;;6210273;28;88365;-64
2021/12/07 14:10:48;;;;;;;3.88;3.35;;;22.50;73.00;;;;;;6210777;28;89079;-64
2021/12/07 14:13:52;;;;;;;4.20;3.80;;;22.50;72.90;;;;;;6197164;28;89181;-64
2021/12/07 14:17:18;;;;;;;4.80;4.00;;;22.50;72.90;;;;;;6201615;28;89982;-63
2021/12/07 14:20:35;;;;;;;4.10;3.65;;;22.50;73.00;;;;;;6203370;28;89120;-64
2021/12/07 14:23:39;;;;;;;4.40;3.97;;;22.60;73.00;;;;;;6211644;28;89075;-63
2021/12/07 14:26:41;;;;;;;4.30;3.83;;;22.60;72.90;;;;;;6224170;28;89145;-64
2021/12/07 14:29:43;;;;;;;4.50;4.10;;;22.60;72.90;;;;;;6196908;28;89061;-64
2021/12/07 14:32:47;;;;;;;4.75;4.25;;;22.60;72.90;;;;;;6216248;28;89320;-64
2021/12/07 14:35:49;;;;;;;4.57;4.00;;;22.60;72.80;;;;;;6219909;28;88881;-63
2021/12/07 14:38:53;;;;;;;5.18;4.35;;;22.60;72.80;;;;;;6218185;28;87518;-64
2021/12/07 14:41:58;;;;;;;4.80;4.30;;;22.60;72.80;;;;;;6222937;28;89155;-64
2021/12/07 14:45:01;;;;;;;5.00;4.50;;;22.60;72.80;;;;;;6207072;28;89346;-64
2021/12/07 14:48:05;;;;;;;5.53;4.15;;;22.60;72.70;;;;;;6195312;28;90343;-63
2021/12/07 14:51:09;;;;;;;5.13;4.63;;;22.60;72.70;;;;;;6205180;28;89421;-64
2021/12/07 14:54:13;;;;;;;5.05;4.55;;;22.60;72.70;;;;;;6202493;28;89116;-63
2021/12/07 14:57:17;;;;;;;5.20;4.70;;;22.60;72.80;;;;;;6199770;28;89067;-64
2021/12/07 15:00:19;;;;;;;5.25;4.72;;;22.60;72.70;;;;;;6199871;28;87947;-64
2021/12/07 15:03:23;;;;;;;4.97;4.47;;;22.60;72.70;;;;;;6198103;28;88979;-63
2021/12/07 15:06:28;;;;;;;5.05;4.55;;;22.60;72.70;;;;;;6210072;28;89344;-64
2021/12/07 15:09:34;;;;;;;5.43;4.90;;;22.60;72.70;;;;;;6208595;28;88693;-63
2021/12/07 15:12:36;;;;;;;4.95;4.45;;;22.60;72.70;;;;;;6196019;28;89034;-63
2021/12/07 15:15:40;;;;;;;5.68;5.07;;;22.60;72.70;;;;;;6197091;28;89195;-63
2021/12/07 15:18:45;;;;;;;5.45;4.90;;;22.60;72.70;;;;;;6202782;28;90338;-63
2021/12/07 15:21:48;;;;;;;5.78;5.18;;;22.60;72.70;;;;;;6208415;28;89303;-64
2021/12/07 15:24:50;;;;;;;5.80;5.20;;;22.60;72.70;;;;;;6205029;28;89104;-64
2021/12/07 15:27:53;;;;;;;5.97;5.18;;;22.60;72.70;;;;;;6201791;28;88933;-64
2021/12/07 15:30:55;;;;;;;5.45;4.95;;;22.60;72.70;;;;;;6220820;28;89064;-63
2021/12/07 15:33:59;;;;;;;5.47;4.97;;;22.60;72.70;;;;;;6207105;28;89171;-64
2021/12/07 15:37:05;;;;;;;6.38;5.38;;;22.60;72.70;;;;;;6202253;28;88276;-64
2021/12/07 15:40:11;;;;;;;6.00;5.40;;;22.60;72.70;;;;;;6212189;28;88705;-64
2021/12/07 15:43:14;;;;;;;6.70;5.88;;;22.70;72.80;;;;;;6204342;28;88907;-63
2021/12/07 15:46:17;;;;;;;6.22;5.63;;;22.60;72.70;;;;;;6202355;28;87954;-64
2021/12/07 15:49:25;;;;;;;6.07;5.28;;;22.60;72.70;;;;;;6198882;28;89945;-64
2021/12/07 15:52:32;;;;;;;5.85;5.20;;;22.60;72.70;;;;;;6200131;28;89350;-64
2021/12/07 15:55:36;;;;;;;6.50;5.78;;;22.70;72.70;;;;;;6187194;28;88988;-64
2021/12/07 15:58:38;;;;;;;6.20;5.60;;;22.60;72.70;;;;;;6197458;28;89048;-64
2021/12/07 16:01:42;;;;;;;6.20;5.57;;;22.60;72.60;;;;;;6201155;28;89169;-64
2021/12/07 16:04:45;;;;;;;5.75;5.20;;;22.70;72.70;;;;;;6212282;28;89026;-63
2021/12/07 16:07:49;;;;;;;6.57;5.53;;;22.60;72.50;;;;;;6219370;28;88010;-64
2021/12/07 16:10:56;;;;;;;7.07;6.05;;;22.70;72.60;;;;;;6207598;28;88329;-64
2021/12/07 16:14:00;;;;;;;6.38;5.70;;;22.70;72.60;;;;;;6214649;28;89053;-63
2021/12/07 16:17:03;;;;;;;6.80;6.05;;;22.70;72.60;;;;;;6208452;28;89330;-64
2021/12/07 16:20:10;;;;;;;6.43;5.82;;;22.60;72.50;;;;;;6222891;28;90017;-63
2021/12/07 16:23:12;;;;;;;7.05;6.25;;;22.70;72.50;;;;;;6207417;28;89151;-63
2021/12/07 16:26:15;;;;;;;7.50;6.70;;;22.70;72.50;;;;;;6221799;28;88971;-64
2021/12/07 16:29:19;;;;;;;6.90;6.10;;;22.70;72.50;;;;;;6220981;28;89037;-63
2021/12/07 16:32:22;;;;;;;6.53;5.82;;;22.70;72.50;;;;;;6220392;28;88982;-64
2021/12/07 16:35:25;;;;;;;7.20;6.45;;;22.70;72.50;;;;;;6220482;28;89054;-64
2021/12/07 16:38:28;;;;;;;6.80;6.10;;;22.70;72.50;;;;;;6228809;28;87987;-63
2021/12/07 16:41:30;;;;;;;6.38;5.65;;;22.70;72.50;;;;;;6222830;28;88311;-64
2021/12/07 16:44:32;;;;;;;6.88;5.82;;;22.60;72.50;;;;;;6206791;28;89007;-63
2021/12/07 16:47:34;;;;;;;6.78;6.10;;;22.70;72.50;;;;;;6208302;28;87932;-63
2021/12/07 16:50:38;;;;;;;6.63;5.93;;;22.70;72.50;;;;;;6208542;28;89891;-63
2021/12/07 16:53:41;;;;;;;6.97;6.28;;;22.70;72.50;;;;;;6190125;28;89343;-63
2021/12/07 16:56:43;;;;;;;7.07;6.38;;;22.70;72.50;;;;;;6210748;28;89113;-64
2021/12/07 16:59:45;;;;;;;7.05;6.32;;;22.70;72.50;;;;;;6206698;28;89065;-64
2021/12/07 17:02:47;;;;;;;7.78;6.43;;;22.70;72.50;;;;;;6209911;28;89152;-63
2021/12/07 17:05:53;;;;;;;7.20;6.50;;;22.70;72.50;;;;;;6212290;28;89135;-64
2021/12/07 17:08:56;;;;;;;7.65;6.85;;;22.70;72.50;;;;;;6206132;28;87975;-64
2021/12/07 17:11:58;;;;;;;7.22;6.47;;;22.70;72.50;;;;;;6210342;28;88355;-64
2021/12/07 17:15:00;;;;;;;7.55;6.75;;;22.70;72.50;;;;;;6219246;28;87967;-63